sensor_id;sensor_type;location;lat;lon;timestamp;temperature;humidity
51867;DHT22;52862;52.504;13.480;2023-07-13T00:00:26;21.10;99.90
51867;DHT22;52862;52.504;13.480;2023-07-13T00:02:53;21.00;97.60
51867;DHT22;52862;52.504;13.480;2023-07-13T00:05:21;21.00;97.50
51867;DHT22;52862;52.504;13.480;2023-07-13T00:07:48;21.10;99.90
51867;DHT22;52862;52.504;13.480;2023-07-13T00:10:16;20.80;98.10
51867;DHT22;52862;52.504;13.480;2023-07-13T00:12:44;21.70;98.50
51867;DHT22;52862;52.504;13.480;2023-07-13T00:15:13;21.00;98.70
51867;DHT22;52862;52.504;13.480;2023-07-13T00:17:42;21.20;99.90
51867;DHT22;52862;52.504;13.480;2023-07-13T00:20:11;20.70;99.90
51867;DHT22;52862;52.504;13.480;2023-07-13T00:22:39;20.50;99.90
51867;DHT22;52862;52.504;13.480;2023-07-13T00:25:07;20.70;99.90
51867;DHT22;52862;52.504;13.480;2023-07-13T00:27:35;21.10;99.90
51867;DHT22;52862;52.504;13.480;2023-07-13T00:30:02;20.90;99.90
51867;DHT22;52862;52.504;13.480;2023-07-13T00:34:56;20.90;99.90
51867;DHT22;52862;52.504;13.480;2023-07-13T00:39:52;20.60;99.90
51867;DHT22;52862;52.504;13.480;2023-07-13T00:42:19;20.50;99.90
51867;DHT22;52862;52.504;13.480;2023-07-13T00:45:01;20.60;99.90
51867;DHT22;52862;52.504;13.480;2023-07-13T00:49:55;20.80;99.90
51867;DHT22;52862;52.504;13.480;2023-07-13T00:54:49;20.50;99.90
51867;DHT22;52862;52.504;13.480;2023-07-13T00:57:18;20.40;99.90
51867;DHT22;52862;52.504;13.480;2023-07-13T00:59:50;20.90;99.90
51867;DHT22;52862;52.504;13.480;2023-07-13T01:02:18;20.30;99.90
51867;DHT22;52862;52.504;13.480;2023-07-13T01:04:45;20.40;99.90
51867;DHT22;52862;52.504;13.480;2023-07-13T01:07:13;21.00;99.90
51867;DHT22;52862;52.504;13.480;2023-07-13T01:12:08;20.80;99.90
51867;DHT22;52862;52.504;13.480;2023-07-13T01:14:35;20.40;99.90
51867;DHT22;52862;52.504;13.480;2023-07-13T01:17:03;20.70;99.90
51867;DHT22;52862;52.504;13.480;2023-07-13T01:19:35;20.80;99.90
51867;DHT22;52862;52.504;13.480;2023-07-13T01:22:04;20.00;99.90
51867;DHT22;52862;52.504;13.480;2023-07-13T01:24:35;20.60;99.90
51867;DHT22;52862;52.504;13.480;2023-07-13T01:27:03;20.20;99.90
51867;DHT22;52862;52.504;13.480;2023-07-13T01:29:30;19.40;99.90
51867;DHT22;52862;52.504;13.480;2023-07-13T01:31:57;20.60;99.90
51867;DHT22;52862;52.504;13.480;2023-07-13T01:36:51;19.40;99.90
51867;DHT22;52862;52.504;13.480;2023-07-13T01:39:20;20.60;99.90
51867;DHT22;52862;52.504;13.480;2023-07-13T01:41:48;20.00;99.90
51867;DHT22;52862;52.504;13.480;2023-07-13T01:44:14;20.10;99.90
51867;DHT22;52862;52.504;13.480;2023-07-13T01:46:41;19.60;99.90
51867;DHT22;52862;52.504;13.480;2023-07-13T01:51:35;20.20;99.90
51867;DHT22;52862;52.504;13.480;2023-07-13T01:54:02;20.10;99.90
51867;DHT22;52862;52.504;13.480;2023-07-13T01:56:30;20.30;99.90
51867;DHT22;52862;52.504;13.480;2023-07-13T01:58:57;20.30;99.90
51867;DHT22;52862;52.504;13.480;2023-07-13T02:03:51;19.30;99.90
51867;DHT22;52862;52.504;13.480;2023-07-13T02:06:17;19.20;99.90
51867;DHT22;52862;52.504;13.480;2023-07-13T02:11:11;19.80;99.90
51867;DHT22;52862;52.504;13.480;2023-07-13T02:13:39;18.80;99.90
51867;DHT22;52862;52.504;13.480;2023-07-13T02:16:06;19.90;99.90
51867;DHT22;52862;52.504;13.480;2023-07-13T02:21:00;19.70;99.90
51867;DHT22;52862;52.504;13.480;2023-07-13T02:23:26;19.20;99.90
51867;DHT22;52862;52.504;13.480;2023-07-13T02:25:55;19.80;99.90
51867;DHT22;52862;52.504;13.480;2023-07-13T02:30:49;19.70;99.90
51867;DHT22;52862;52.504;13.480;2023-07-13T02:33:16;19.40;99.90
51867;DHT22;52862;52.504;13.480;2023-07-13T02:35:43;21.90;99.90
51867;DHT22;52862;52.504;13.480;2023-07-13T02:38:10;19.50;99.90
51867;DHT22;52862;52.504;13.480;2023-07-13T02:40:37;19.50;99.90
51867;DHT22;52862;52.504;13.480;2023-07-13T02:43:04;19.70;99.90
51867;DHT22;52862;52.504;13.480;2023-07-13T02:47:59;19.70;99.90
51867;DHT22;52862;52.504;13.480;2023-07-13T02:50:25;19.90;99.90
51867;DHT22;52862;52.504;13.480;2023-07-13T02:57:46;19.50;99.90
51867;DHT22;52862;52.504;13.480;2023-07-13T03:00:13;19.60;99.90
51867;DHT22;52862;52.504;13.480;2023-07-13T03:02:42;19.60;99.90
51867;DHT22;52862;52.504;13.480;2023-07-13T03:05:10;19.60;99.90
51867;DHT22;52862;52.504;13.480;2023-07-13T03:07:39;19.70;99.90
51867;DHT22;52862;52.504;13.480;2023-07-13T03:10:06;19.00;99.90
51867;DHT22;52862;52.504;13.480;2023-07-13T03:17:27;19.30;99.90
51867;DHT22;52862;52.504;13.480;2023-07-13T03:19:54;19.70;99.90
51867;DHT22;52862;52.504;13.480;2023-07-13T03:22:22;19.40;99.90
51867;DHT22;52862;52.504;13.480;2023-07-13T03:27:17;19.30;99.90
51867;DHT22;52862;52.504;13.480;2023-07-13T03:32:11;19.40;99.90
51867;DHT22;52862;52.504;13.480;2023-07-13T03:34:38;19.50;99.90
51867;DHT22;52862;52.504;13.480;2023-07-13T03:37:05;19.70;99.90
51867;DHT22;52862;52.504;13.480;2023-07-13T03:39:33;19.70;99.90
51867;DHT22;52862;52.504;13.480;2023-07-13T03:42:00;19.60;99.90
51867;DHT22;52862;52.504;13.480;2023-07-13T03:44:27;19.50;99.90
51867;DHT22;52862;52.504;13.480;2023-07-13T03:49:21;20.10;99.90
51867;DHT22;52862;52.504;13.480;2023-07-13T03:54:18;19.80;99.90
51867;DHT22;52862;52.504;13.480;2023-07-13T03:56:46;20.20;99.90
51867;DHT22;52862;52.504;13.480;2023-07-13T04:09:03;18.90;99.90
51867;DHT22;52862;52.504;13.480;2023-07-13T04:14:00;20.20;99.90
51867;DHT22;52862;52.504;13.480;2023-07-13T04:16:27;20.20;99.90
51867;DHT22;52862;52.504;13.480;2023-07-13T04:18:54;19.70;99.90
51867;DHT22;52862;52.504;13.480;2023-07-13T04:21:25;20.10;99.90
51867;DHT22;52862;52.504;13.480;2023-07-13T04:28:47;19.60;99.90
51867;DHT22;52862;52.504;13.480;2023-07-13T04:31:15;19.90;99.90
51867;DHT22;52862;52.504;13.480;2023-07-13T04:36:11;19.70;99.90
51867;DHT22;52862;52.504;13.480;2023-07-13T04:41:06;19.70;99.90
51867;DHT22;52862;52.504;13.480;2023-07-13T04:43:34;19.80;99.90
51867;DHT22;52862;52.504;13.480;2023-07-13T04:46:05;19.80;99.90
51867;DHT22;52862;52.504;13.480;2023-07-13T04:48:33;19.70;99.90
51867;DHT22;52862;52.504;13.480;2023-07-13T04:51:01;19.40;99.90
51867;DHT22;52862;52.504;13.480;2023-07-13T04:53:29;19.90;99.90
51867;DHT22;52862;52.504;13.480;2023-07-13T04:55:56;20.20;99.90
51867;DHT22;52862;52.504;13.480;2023-07-13T04:58:24;20.20;99.90
51867;DHT22;52862;52.504;13.480;2023-07-13T05:00:52;20.20;99.90
51867;DHT22;52862;52.504;13.480;2023-07-13T05:03:19;20.20;99.90
51867;DHT22;52862;52.504;13.480;2023-07-13T05:05:55;20.40;99.90
51867;DHT22;52862;52.504;13.480;2023-07-13T05:10:50;20.30;99.90
51867;DHT22;52862;52.504;13.480;2023-07-13T05:15:43;20.90;99.90
51867;DHT22;52862;52.504;13.480;2023-07-13T05:18:10;20.40;99.90
51867;DHT22;52862;52.504;13.480;2023-07-13T05:20:37;20.90;99.90
51867;DHT22;52862;52.504;13.480;2023-07-13T05:23:04;20.60;99.90
51867;DHT22;52862;52.504;13.480;2023-07-13T05:25:31;20.80;99.90
51867;DHT22;52862;52.504;13.480;2023-07-13T05:27:58;20.80;99.90
51867;DHT22;52862;52.504;13.480;2023-07-13T05:30:25;21.30;99.90
51867;DHT22;52862;52.504;13.480;2023-07-13T05:32:51;21.30;99.90
51867;DHT22;52862;52.504;13.480;2023-07-13T05:35:18;20.90;99.90
51867;DHT22;52862;52.504;13.480;2023-07-13T05:37:45;20.60;99.90
51867;DHT22;52862;52.504;13.480;2023-07-13T05:40:13;21.50;99.90
51867;DHT22;52862;52.504;13.480;2023-07-13T05:45:07;21.00;99.90
51867;DHT22;52862;52.504;13.480;2023-07-13T05:50:01;21.50;99.90
51867;DHT22;52862;52.504;13.480;2023-07-13T05:52:32;21.10;99.90
51867;DHT22;52862;52.504;13.480;2023-07-13T05:54:58;21.60;99.90
51867;DHT22;52862;52.504;13.480;2023-07-13T05:57:26;22.10;99.90
51867;DHT22;52862;52.504;13.480;2023-07-13T05:59:53;20.90;99.90
51867;DHT22;52862;52.504;13.480;2023-07-13T06:07:16;21.70;99.90
51867;DHT22;52862;52.504;13.480;2023-07-13T06:09:43;21.40;99.90
51867;DHT22;52862;52.504;13.480;2023-07-13T06:12:10;21.40;99.90
51867;DHT22;52862;52.504;13.480;2023-07-13T06:17:05;21.20;99.90
51867;DHT22;52862;52.504;13.480;2023-07-13T06:21:59;22.10;99.90
51867;DHT22;52862;52.504;13.480;2023-07-13T06:31:47;21.80;99.90
51867;DHT22;52862;52.504;13.480;2023-07-13T06:34:14;22.10;99.90
51867;DHT22;52862;52.504;13.480;2023-07-13T06:36:41;23.40;99.90
51867;DHT22;52862;52.504;13.480;2023-07-13T06:39:08;22.80;99.90
51867;DHT22;52862;52.504;13.480;2023-07-13T06:46:29;22.80;99.90
51867;DHT22;52862;52.504;13.480;2023-07-13T06:48:57;22.70;99.90
51867;DHT22;52862;52.504;13.480;2023-07-13T06:51:24;22.10;99.90
51867;DHT22;52862;52.504;13.480;2023-07-13T06:58:47;22.90;99.90
51867;DHT22;52862;52.504;13.480;2023-07-13T07:01:14;22.40;99.90
51867;DHT22;52862;52.504;13.480;2023-07-13T07:06:13;22.90;99.90
51867;DHT22;52862;52.504;13.480;2023-07-13T07:08:41;22.50;99.90
51867;DHT22;52862;52.504;13.480;2023-07-13T07:11:11;22.60;99.90
51867;DHT22;52862;52.504;13.480;2023-07-13T07:16:05;21.90;99.90
51867;DHT22;52862;52.504;13.480;2023-07-13T07:23:27;22.80;99.90
51867;DHT22;52862;52.504;13.480;2023-07-13T07:28:21;22.60;99.90
51867;DHT22;52862;52.504;13.480;2023-07-13T07:30:53;23.00;99.90
51867;DHT22;52862;52.504;13.480;2023-07-13T07:36:07;23.50;99.90
51867;DHT22;52862;52.504;13.480;2023-07-13T07:38:38;23.70;99.90
51867;DHT22;52862;52.504;13.480;2023-07-13T07:41:05;23.70;99.90
51867;DHT22;52862;52.504;13.480;2023-07-13T07:43:35;23.90;99.90
51867;DHT22;52862;52.504;13.480;2023-07-13T07:46:02;24.10;99.90
51867;DHT22;52862;52.504;13.480;2023-07-13T07:48:29;24.60;99.90
51867;DHT22;52862;52.504;13.480;2023-07-13T07:55:51;24.20;97.20
51867;DHT22;52862;52.504;13.480;2023-07-13T07:58:20;24.60;99.90
51867;DHT22;52862;52.504;13.480;2023-07-13T08:05:52;24.00;99.90
51867;DHT22;52862;52.504;13.480;2023-07-13T08:08:39;23.10;99.90
51867;DHT22;52862;52.504;13.480;2023-07-13T08:11:08;23.20;98.20
51867;DHT22;52862;52.504;13.480;2023-07-13T08:13:37;23.20;99.90
51867;DHT22;52862;52.504;13.480;2023-07-13T08:16:05;23.60;97.60
51867;DHT22;52862;52.504;13.480;2023-07-13T08:18:33;23.70;99.90
51867;DHT22;52862;52.504;13.480;2023-07-13T08:21:03;23.50;97.80
51867;DHT22;52862;52.504;13.480;2023-07-13T08:28:28;26.00;97.60
51867;DHT22;52862;52.504;13.480;2023-07-13T08:30:59;23.30;97.20
51867;DHT22;52862;52.504;13.480;2023-07-13T08:33:26;24.40;99.90
51867;DHT22;52862;52.504;13.480;2023-07-13T08:35:53;23.90;99.90
51867;DHT22;52862;52.504;13.480;2023-07-13T08:38:20;24.50;99.90
51867;DHT22;52862;52.504;13.480;2023-07-13T08:40:50;24.00;95.70
51867;DHT22;52862;52.504;13.480;2023-07-13T08:43:23;24.20;99.90
51867;DHT22;52862;52.504;13.480;2023-07-13T08:45:54;23.70;99.90
51867;DHT22;52862;52.504;13.480;2023-07-13T08:48:26;23.90;95.30
51867;DHT22;52862;52.504;13.480;2023-07-13T08:50:57;23.60;96.00
51867;DHT22;52862;52.504;13.480;2023-07-13T08:53:38;23.80;96.30
51867;DHT22;52862;52.504;13.480;2023-07-13T08:56:11;23.50;96.40
51867;DHT22;52862;52.504;13.480;2023-07-13T08:58:41;23.80;99.90
51867;DHT22;52862;52.504;13.480;2023-07-13T09:01:14;23.20;99.10
51867;DHT22;52862;52.504;13.480;2023-07-13T09:03:50;23.10;97.30
51867;DHT22;52862;52.504;13.480;2023-07-13T09:06:20;23.40;97.80
51867;DHT22;52862;52.504;13.480;2023-07-13T09:08:57;23.30;99.90
51867;DHT22;52862;52.504;13.480;2023-07-13T09:11:36;23.30;99.90
51867;DHT22;52862;52.504;13.480;2023-07-13T09:17:01;24.00;99.90
51867;DHT22;52862;52.504;13.480;2023-07-13T09:19:30;24.10;99.90
51867;DHT22;52862;52.504;13.480;2023-07-13T09:21:59;23.90;96.60
51867;DHT22;52862;52.504;13.480;2023-07-13T09:24:35;23.90;99.90
51867;DHT22;52862;52.504;13.480;2023-07-13T09:27:08;23.80;99.90
51867;DHT22;52862;52.504;13.480;2023-07-13T09:29:42;23.90;98.60
51867;DHT22;52862;52.504;13.480;2023-07-13T09:32:14;24.00;96.60
51867;DHT22;52862;52.504;13.480;2023-07-13T09:34:50;24.00;99.90
51867;DHT22;52862;52.504;13.480;2023-07-13T09:37:18;24.40;94.60
51867;DHT22;52862;52.504;13.480;2023-07-13T09:39:46;24.40;99.30
51867;DHT22;52862;52.504;13.480;2023-07-13T09:42:16;24.20;99.90
51867;DHT22;52862;52.504;13.480;2023-07-13T09:44:52;24.50;93.20
51867;DHT22;52862;52.504;13.480;2023-07-13T09:47:22;23.90;99.90
51867;DHT22;52862;52.504;13.480;2023-07-13T09:49:54;24.90;93.90
51867;DHT22;52862;52.504;13.480;2023-07-13T09:52:21;24.50;99.90
51867;DHT22;52862;52.504;13.480;2023-07-13T09:54:51;24.20;92.30
51867;DHT22;52862;52.504;13.480;2023-07-13T09:57:23;24.10;99.50
51867;DHT22;52862;52.504;13.480;2023-07-13T10:00:00;24.40;99.00
51867;DHT22;52862;52.504;13.480;2023-07-13T10:02:29;25.00;94.80
51867;DHT22;52862;52.504;13.480;2023-07-13T10:04:58;23.90;99.80
51867;DHT22;52862;52.504;13.480;2023-07-13T10:07:25;24.10;99.50
51867;DHT22;52862;52.504;13.480;2023-07-13T10:09:57;24.50;99.30
51867;DHT22;52862;52.504;13.480;2023-07-13T10:12:28;23.80;99.00
51867;DHT22;52862;52.504;13.480;2023-07-13T10:14:58;24.00;99.50
51867;DHT22;52862;52.504;13.480;2023-07-13T10:17:49;23.70;99.40
51867;DHT22;52862;52.504;13.480;2023-07-13T10:20:16;24.30;94.20
51867;DHT22;52862;52.504;13.480;2023-07-13T10:22:47;24.10;99.90
51867;DHT22;52862;52.504;13.480;2023-07-13T10:25:18;24.50;91.50
51867;DHT22;52862;52.504;13.480;2023-07-13T10:27:45;25.70;99.70
51867;DHT22;52862;52.504;13.480;2023-07-13T10:30:18;24.50;99.60
51867;DHT22;52862;52.504;13.480;2023-07-13T10:32:47;25.20;91.40
51867;DHT22;52862;52.504;13.480;2023-07-13T10:35:16;25.60;98.60
51867;DHT22;52862;52.504;13.480;2023-07-13T10:37:49;25.10;98.90
51867;DHT22;52862;52.504;13.480;2023-07-13T10:40:21;24.10;94.90
51867;DHT22;52862;52.504;13.480;2023-07-13T10:42:51;24.10;99.70
51867;DHT22;52862;52.504;13.480;2023-07-13T10:45:21;24.50;95.20
51867;DHT22;52862;52.504;13.480;2023-07-13T10:47:51;24.40;97.90
51867;DHT22;52862;52.504;13.480;2023-07-13T10:50:22;24.60;90.50
51867;DHT22;52862;52.504;13.480;2023-07-13T10:52:50;24.00;96.00
51867;DHT22;52862;52.504;13.480;2023-07-13T10:55:38;24.70;98.30
51867;DHT22;52862;52.504;13.480;2023-07-13T10:58:18;24.80;97.80
51867;DHT22;52862;52.504;13.480;2023-07-13T11:00:50;24.80;97.20
51867;DHT22;52862;52.504;13.480;2023-07-13T11:03:22;24.60;97.30
51867;DHT22;52862;52.504;13.480;2023-07-13T11:05:51;24.50;95.50
51867;DHT22;52862;52.504;13.480;2023-07-13T11:08:33;25.90;97.10
51867;DHT22;52862;52.504;13.480;2023-07-13T11:11:03;24.90;88.30
51867;DHT22;52862;52.504;13.480;2023-07-13T11:13:38;24.90;95.70
51867;DHT22;52862;52.504;13.480;2023-07-13T11:16:13;25.50;84.40
51867;DHT22;52862;52.504;13.480;2023-07-13T11:18:45;25.40;96.30
51867;DHT22;52862;52.504;13.480;2023-07-13T11:21:16;25.50;85.60
51867;DHT22;52862;52.504;13.480;2023-07-13T11:24:03;25.40;95.70
51867;DHT22;52862;52.504;13.480;2023-07-13T11:26:41;26.60;95.00
51867;DHT22;52862;52.504;13.480;2023-07-13T11:29:09;25.80;94.60
51867;DHT22;52862;52.504;13.480;2023-07-13T11:34:12;25.90;94.20
51867;DHT22;52862;52.504;13.480;2023-07-13T11:36:43;26.00;81.20
51867;DHT22;52862;52.504;13.480;2023-07-13T11:39:18;25.60;84.60
51867;DHT22;52862;52.504;13.480;2023-07-13T11:41:50;26.40;95.00
51867;DHT22;52862;52.504;13.480;2023-07-13T11:44:19;25.80;94.30
51867;DHT22;52862;52.504;13.480;2023-07-13T11:46:49;26.50;94.20
51867;DHT22;52862;52.504;13.480;2023-07-13T11:49:20;26.30;86.80
51867;DHT22;52862;52.504;13.480;2023-07-13T11:51:51;26.20;81.50
51867;DHT22;52862;52.504;13.480;2023-07-13T11:54:24;26.10;94.20
51867;DHT22;52862;52.504;13.480;2023-07-13T11:56:53;25.80;94.30
51867;DHT22;52862;52.504;13.480;2023-07-13T12:01:52;26.40;81.20
51867;DHT22;52862;52.504;13.480;2023-07-13T12:04:23;26.00;94.40
51867;DHT22;52862;52.504;13.480;2023-07-13T12:07:03;26.80;94.90
51867;DHT22;52862;52.504;13.480;2023-07-13T12:09:30;26.30;91.70
51867;DHT22;52862;52.504;13.480;2023-07-13T12:11:57;26.70;87.50
51867;DHT22;52862;52.504;13.480;2023-07-13T12:14:26;26.40;90.90
51867;DHT22;52862;52.504;13.480;2023-07-13T12:16:53;26.00;90.40
51867;DHT22;52862;52.504;13.480;2023-07-13T12:19:23;26.90;93.70
51867;DHT22;52862;52.504;13.480;2023-07-13T12:21:54;26.50;93.20
51867;DHT22;52862;52.504;13.480;2023-07-13T12:24:22;27.10;77.90
51867;DHT22;52862;52.504;13.480;2023-07-13T12:26:54;27.00;78.10
51867;DHT22;52862;52.504;13.480;2023-07-13T12:31:49;27.60;79.80
51867;DHT22;52862;52.504;13.480;2023-07-13T12:34:20;26.40;93.50
51867;DHT22;52862;52.504;13.480;2023-07-13T12:36:49;26.40;93.30
51867;DHT22;52862;52.504;13.480;2023-07-13T12:39:19;26.90;81.50
51867;DHT22;52862;52.504;13.480;2023-07-13T12:41:47;26.10;94.30
51867;DHT22;52862;52.504;13.480;2023-07-13T12:44:16;26.40;79.80
51867;DHT22;52862;52.504;13.480;2023-07-13T12:46:53;26.40;84.80
51867;DHT22;52862;52.504;13.480;2023-07-13T12:49:25;26.20;93.10
51867;DHT22;52862;52.504;13.480;2023-07-13T12:51:57;26.80;82.40
51867;DHT22;52862;52.504;13.480;2023-07-13T12:54:25;27.50;79.60
51867;DHT22;52862;52.504;13.480;2023-07-13T12:56:56;27.30;93.80
51867;DHT22;52862;52.504;13.480;2023-07-13T12:59:26;27.10;92.80
51867;DHT22;52862;52.504;13.480;2023-07-13T13:01:55;27.30;92.90
51867;DHT22;52862;52.504;13.480;2023-07-13T13:04:23;27.50;92.60
51867;DHT22;52862;52.504;13.480;2023-07-13T13:07:01;28.50;91.90
51867;DHT22;52862;52.504;13.480;2023-07-13T13:09:28;28.90;80.10
51867;DHT22;52862;52.504;13.480;2023-07-13T13:11:55;27.60;91.70
51867;DHT22;52862;52.504;13.480;2023-07-13T13:16:50;27.60;91.30
51867;DHT22;52862;52.504;13.480;2023-07-13T13:19:19;26.80;76.40
51867;DHT22;52862;52.504;13.480;2023-07-13T13:21:48;27.40;92.20
51867;DHT22;52862;52.504;13.480;2023-07-13T13:24:18;27.20;89.20
51867;DHT22;52862;52.504;13.480;2023-07-13T13:26:46;26.90;91.70
51867;DHT22;52862;52.504;13.480;2023-07-13T13:29:15;27.00;91.40
51867;DHT22;52862;52.504;13.480;2023-07-13T13:31:43;28.20;91.30
51867;DHT22;52862;52.504;13.480;2023-07-13T13:34:11;27.70;74.80
51867;DHT22;52862;52.504;13.480;2023-07-13T13:36:38;27.70;91.40
51867;DHT22;52862;52.504;13.480;2023-07-13T13:39:10;28.00;91.10
51867;DHT22;52862;52.504;13.480;2023-07-13T13:41:43;27.80;75.60
51867;DHT22;52862;52.504;13.480;2023-07-13T13:44:10;27.70;82.40
51867;DHT22;52862;52.504;13.480;2023-07-13T13:46:37;28.60;91.70
51867;DHT22;52862;52.504;13.480;2023-07-13T13:49:04;28.40;91.90
51867;DHT22;52862;52.504;13.480;2023-07-13T13:51:31;28.20;91.80
51867;DHT22;52862;52.504;13.480;2023-07-13T13:58:53;28.40;75.50
51867;DHT22;52862;52.504;13.480;2023-07-13T14:01:21;27.60;74.50
51867;DHT22;52862;52.504;13.480;2023-07-13T14:06:17;27.50;91.40
51867;DHT22;52862;52.504;13.480;2023-07-13T14:08:45;27.70;84.10
51867;DHT22;52862;52.504;13.480;2023-07-13T14:11:15;27.60;90.40
51867;DHT22;52862;52.504;13.480;2023-07-13T14:13:45;28.20;90.60
51867;DHT22;52862;52.504;13.480;2023-07-13T14:16:16;28.50;73.90
51867;DHT22;52862;52.504;13.480;2023-07-13T14:18:44;29.00;89.60
51867;DHT22;52862;52.504;13.480;2023-07-13T14:21:15;29.50;72.50
51867;DHT22;52862;52.504;13.480;2023-07-13T14:23:44;30.50;85.00
51867;DHT22;52862;52.504;13.480;2023-07-13T14:26:12;30.30;67.40
51867;DHT22;52862;52.504;13.480;2023-07-13T14:28:42;30.80;70.00
51867;DHT22;52862;52.504;13.480;2023-07-13T14:31:10;31.90;75.50
51867;DHT22;52862;52.504;13.480;2023-07-13T14:33:37;31.70;64.70
51867;DHT22;52862;52.504;13.480;2023-07-13T14:36:27;29.70;79.00
51867;DHT22;52862;52.504;13.480;2023-07-13T14:43:49;29.80;86.30
51867;DHT22;52862;52.504;13.480;2023-07-13T14:46:26;29.80;79.60
51867;DHT22;52862;52.504;13.480;2023-07-13T14:48:59;30.70;84.90
51867;DHT22;52862;52.504;13.480;2023-07-13T14:51:27;31.80;65.80
51867;DHT22;52862;52.504;13.480;2023-07-13T14:53:54;34.00;78.50
51867;DHT22;52862;52.504;13.480;2023-07-13T14:58:47;34.50;75.80
51867;DHT22;52862;52.504;13.480;2023-07-13T15:01:15;34.60;59.40
51867;DHT22;52862;52.504;13.480;2023-07-13T15:03:45;33.90;59.70
51867;DHT22;52862;52.504;13.480;2023-07-13T15:06:14;35.40;62.50
51867;DHT22;52862;52.504;13.480;2023-07-13T15:08:41;33.00;59.60
51867;DHT22;52862;52.504;13.480;2023-07-13T15:11:09;33.20;60.00
51867;DHT22;52862;52.504;13.480;2023-07-13T15:16:08;32.50;60.70
51867;DHT22;52862;52.504;13.480;2023-07-13T15:21:08;32.40;60.80
51867;DHT22;52862;52.504;13.480;2023-07-13T15:23:36;34.10;58.70
51867;DHT22;52862;52.504;13.480;2023-07-13T15:33:27;34.60;66.60
51867;DHT22;52862;52.504;13.480;2023-07-13T15:35:54;35.10;55.40
51867;DHT22;52862;52.504;13.480;2023-07-13T15:38:23;33.80;55.70
51867;DHT22;52862;52.504;13.480;2023-07-13T15:40:52;32.70;56.60
51867;DHT22;52862;52.504;13.480;2023-07-13T15:43:19;32.40;58.00
51867;DHT22;52862;52.504;13.480;2023-07-13T15:48:15;33.00;56.80
51867;DHT22;52862;52.504;13.480;2023-07-13T15:50:45;32.90;56.40
51867;DHT22;52862;52.504;13.480;2023-07-13T15:58:11;33.00;57.60
51867;DHT22;52862;52.504;13.480;2023-07-13T16:03:09;31.60;59.00
51867;DHT22;52862;52.504;13.480;2023-07-13T16:08:05;31.20;76.60
51867;DHT22;52862;52.504;13.480;2023-07-13T16:10:35;31.80;59.20
51867;DHT22;52862;52.504;13.480;2023-07-13T16:15:32;30.80;59.80
51867;DHT22;52862;52.504;13.480;2023-07-13T16:22:55;31.30;59.40
51867;DHT22;52862;52.504;13.480;2023-07-13T16:25:23;30.80;59.60
51867;DHT22;52862;52.504;13.480;2023-07-13T16:27:52;30.30;59.90
51867;DHT22;52862;52.504;13.480;2023-07-13T16:30:21;29.00;65.00
51867;DHT22;52862;52.504;13.480;2023-07-13T16:32:49;28.80;82.40
51867;DHT22;52862;52.504;13.480;2023-07-13T16:35:18;28.20;65.80
51867;DHT22;52862;52.504;13.480;2023-07-13T16:37:45;27.60;84.90
51867;DHT22;52862;52.504;13.480;2023-07-13T16:40:30;27.40;85.10
51867;DHT22;52862;52.504;13.480;2023-07-13T16:42:58;27.30;85.00
51867;DHT22;52862;52.504;13.480;2023-07-13T16:45:26;27.20;82.50
51867;DHT22;52862;52.504;13.480;2023-07-13T16:47:57;26.50;85.80
51867;DHT22;52862;52.504;13.480;2023-07-13T16:50:29;26.30;68.50
51867;DHT22;52862;52.504;13.480;2023-07-13T16:52:57;26.60;87.40
51867;DHT22;52862;52.504;13.480;2023-07-13T16:55:26;26.50;87.70
51867;DHT22;52862;52.504;13.480;2023-07-13T16:57:54;26.00;87.90
51867;DHT22;52862;52.504;13.480;2023-07-13T17:00:24;27.30;70.80
51867;DHT22;52862;52.504;13.480;2023-07-13T17:02:54;25.40;70.00
51867;DHT22;52862;52.504;13.480;2023-07-13T17:05:28;25.60;85.80
51867;DHT22;52862;52.504;13.480;2023-07-13T17:07:56;25.10;74.40
51867;DHT22;52862;52.504;13.480;2023-07-13T17:10:24;25.20;89.80
51867;DHT22;52862;52.504;13.480;2023-07-13T17:12:52;25.20;72.40
51867;DHT22;52862;52.504;13.480;2023-07-13T17:15:20;24.70;92.10
51867;DHT22;52862;52.504;13.480;2023-07-13T17:17:48;23.00;87.60
51867;DHT22;52862;52.504;13.480;2023-07-13T17:20:20;22.30;98.60
51867;DHT22;52862;52.504;13.480;2023-07-13T17:22:49;22.10;92.50
51867;DHT22;52862;52.504;13.480;2023-07-13T17:25:17;21.60;99.90
51867;DHT22;52862;52.504;13.480;2023-07-13T17:30:17;21.40;99.90
51867;DHT22;52862;52.504;13.480;2023-07-13T17:32:45;21.60;99.90
51867;DHT22;52862;52.504;13.480;2023-07-13T17:35:24;21.40;99.90
51867;DHT22;52862;52.504;13.480;2023-07-13T17:37:53;22.00;99.90
51867;DHT22;52862;52.504;13.480;2023-07-13T17:40:20;20.80;99.90
51867;DHT22;52862;52.504;13.480;2023-07-13T17:42:48;21.40;99.90
51867;DHT22;52862;52.504;13.480;2023-07-13T17:45:17;21.20;99.90
51867;DHT22;52862;52.504;13.480;2023-07-13T17:47:49;21.10;99.90
51867;DHT22;52862;52.504;13.480;2023-07-13T17:50:24;21.20;99.90
51867;DHT22;52862;52.504;13.480;2023-07-13T17:52:54;21.20;99.90
51867;DHT22;52862;52.504;13.480;2023-07-13T17:55:22;19.80;99.90
51867;DHT22;52862;52.504;13.480;2023-07-13T17:57:49;20.40;99.90
51867;DHT22;52862;52.504;13.480;2023-07-13T18:00:18;20.00;99.90
51867;DHT22;52862;52.504;13.480;2023-07-13T18:02:56;21.10;99.90
51867;DHT22;52862;52.504;13.480;2023-07-13T18:07:54;21.00;99.90
51867;DHT22;52862;52.504;13.480;2023-07-13T18:10:22;21.40;99.90
51867;DHT22;52862;52.504;13.480;2023-07-13T18:12:50;21.80;99.90
51867;DHT22;52862;52.504;13.480;2023-07-13T18:15:18;20.70;99.90
51867;DHT22;52862;52.504;13.480;2023-07-13T18:17:47;21.40;99.90
51867;DHT22;52862;52.504;13.480;2023-07-13T18:20:17;21.60;99.90
51867;DHT22;52862;52.504;13.480;2023-07-13T18:22:44;21.50;99.90
51867;DHT22;52862;52.504;13.480;2023-07-13T18:25:13;21.30;99.90
51867;DHT22;52862;52.504;13.480;2023-07-13T18:27:41;20.60;99.90
51867;DHT22;52862;52.504;13.480;2023-07-13T18:30:10;21.10;99.90
51867;DHT22;52862;52.504;13.480;2023-07-13T18:32:39;20.60;99.90
51867;DHT22;52862;52.504;13.480;2023-07-13T18:35:13;20.70;99.90
51867;DHT22;52862;52.504;13.480;2023-07-13T18:37:40;20.60;99.90
51867;DHT22;52862;52.504;13.480;2023-07-13T18:40:13;20.60;99.90
51867;DHT22;52862;52.504;13.480;2023-07-13T18:42:41;20.20;99.90
51867;DHT22;52862;52.504;13.480;2023-07-13T18:45:10;20.60;99.90
51867;DHT22;52862;52.504;13.480;2023-07-13T18:47:41;20.30;99.90
51867;DHT22;52862;52.504;13.480;2023-07-13T18:50:16;20.20;99.90